sensor_id;sensor_type;location;lat;lon;timestamp;P1;durP1;ratioP1;P2;durP2;ratioP2
51288;SDS011;37372;52.294;5.152;2022-07-22T00:01:56;6.15;;;1.90;;
51288;SDS011;37372;52.294;5.152;2022-07-22T00:04:21;8.55;;;2.10;;
51288;SDS011;37372;52.294;5.152;2022-07-22T00:06:46;8.18;;;2.08;;
51288;SDS011;37372;52.294;5.152;2022-07-22T00:09:11;6.80;;;2.20;;
51288;SDS011;37372;52.294;5.152;2022-07-22T00:11:37;7.35;;;2.10;;
51288;SDS011;37372;52.294;5.152;2022-07-22T00:14:03;9.88;;;2.13;;
51288;SDS011;37372;52.294;5.152;2022-07-22T00:16:28;5.50;;;1.70;;
51288;SDS011;37372;52.294;5.152;2022-07-22T00:18:54;9.32;;;1.80;;
51288;SDS011;37372;52.294;5.152;2022-07-22T00:21:19;8.05;;;2.20;;
51288;SDS011;37372;52.294;5.152;2022-07-22T00:23:44;7.07;;;1.90;;
51288;SDS011;37372;52.294;5.152;2022-07-22T00:26:10;5.68;;;1.90;;
51288;SDS011;37372;52.294;5.152;2022-07-22T00:28:35;11.23;;;2.67;;
51288;SDS011;37372;52.294;5.152;2022-07-22T00:31:01;8.70;;;2.45;;
51288;SDS011;37372;52.294;5.152;2022-07-22T00:33:26;6.03;;;1.90;;
51288;SDS011;37372;52.294;5.152;2022-07-22T00:35:51;3.55;;;1.27;;
51288;SDS011;37372;52.294;5.152;2022-07-22T00:38:17;27.27;;;3.95;;
51288;SDS011;37372;52.294;5.152;2022-07-22T00:40:42;8.77;;;1.98;;
51288;SDS011;37372;52.294;5.152;2022-07-22T00:43:07;12.13;;;2.35;;
51288;SDS011;37372;52.294;5.152;2022-07-22T00:45:33;5.65;;;1.50;;
51288;SDS011;37372;52.294;5.152;2022-07-22T00:47:58;6.68;;;2.15;;
51288;SDS011;37372;52.294;5.152;2022-07-22T00:50:24;7.88;;;2.63;;
51288;SDS011;37372;52.294;5.152;2022-07-22T00:52:49;8.23;;;2.42;;
51288;SDS011;37372;52.294;5.152;2022-07-22T00:55:15;9.57;;;2.08;;
51288;SDS011;37372;52.294;5.152;2022-07-22T00:57:41;10.48;;;2.75;;
51288;SDS011;37372;52.294;5.152;2022-07-22T01:00:08;10.88;;;2.40;;
51288;SDS011;37372;52.294;5.152;2022-07-22T01:02:36;10.27;;;2.17;;
51288;SDS011;37372;52.294;5.152;2022-07-22T01:05:02;11.40;;;2.10;;
51288;SDS011;37372;52.294;5.152;2022-07-22T01:07:28;6.68;;;2.28;;
51288;SDS011;37372;52.294;5.152;2022-07-22T01:09:53;10.10;;;2.30;;
51288;SDS011;37372;52.294;5.152;2022-07-22T01:12:18;6.45;;;2.13;;
51288;SDS011;37372;52.294;5.152;2022-07-22T01:14:44;8.55;;;2.50;;
51288;SDS011;37372;52.294;5.152;2022-07-22T01:17:09;8.95;;;2.10;;
51288;SDS011;37372;52.294;5.152;2022-07-22T01:19:37;12.38;;;2.30;;
51288;SDS011;37372;52.294;5.152;2022-07-22T01:22:06;5.57;;;2.03;;
51288;SDS011;37372;52.294;5.152;2022-07-22T01:24:31;7.75;;;2.15;;
51288;SDS011;37372;52.294;5.152;2022-07-22T01:26:57;5.32;;;2.03;;
51288;SDS011;37372;52.294;5.152;2022-07-22T01:29:23;5.65;;;1.95;;
51288;SDS011;37372;52.294;5.152;2022-07-22T01:31:48;4.28;;;1.63;;
51288;SDS011;37372;52.294;5.152;2022-07-22T01:34:13;6.20;;;1.55;;
51288;SDS011;37372;52.294;5.152;2022-07-22T01:36:39;13.50;;;2.10;;
51288;SDS011;37372;52.294;5.152;2022-07-22T01:39:04;8.40;;;2.13;;
51288;SDS011;37372;52.294;5.152;2022-07-22T01:41:30;10.07;;;2.00;;
51288;SDS011;37372;52.294;5.152;2022-07-22T01:43:55;7.03;;;1.48;;
51288;SDS011;37372;52.294;5.152;2022-07-22T01:46:20;3.85;;;1.70;;
51288;SDS011;37372;52.294;5.152;2022-07-22T01:48:47;10.73;;;2.42;;
51288;SDS011;37372;52.294;5.152;2022-07-22T01:51:13;9.63;;;1.92;;
51288;SDS011;37372;52.294;5.152;2022-07-22T01:53:39;5.63;;;1.42;;
51288;SDS011;37372;52.294;5.152;2022-07-22T01:56:04;8.00;;;1.85;;
51288;SDS011;37372;52.294;5.152;2022-07-22T01:58:30;8.02;;;2.38;;
51288;SDS011;37372;52.294;5.152;2022-07-22T02:00:55;8.48;;;1.80;;
51288;SDS011;37372;52.294;5.152;2022-07-22T02:03:20;7.32;;;1.80;;
51288;SDS011;37372;52.294;5.152;2022-07-22T02:05:46;8.32;;;1.90;;
51288;SDS011;37372;52.294;5.152;2022-07-22T02:08:11;4.28;;;1.58;;
51288;SDS011;37372;52.294;5.152;2022-07-22T02:10:38;8.13;;;1.88;;
51288;SDS011;37372;52.294;5.152;2022-07-22T02:13:03;8.57;;;2.20;;
51288;SDS011;37372;52.294;5.152;2022-07-22T02:15:29;6.90;;;1.60;;
51288;SDS011;37372;52.294;5.152;2022-07-22T02:17:56;5.13;;;1.30;;
51288;SDS011;37372;52.294;5.152;2022-07-22T02:20:21;4.50;;;1.10;;
51288;SDS011;37372;52.294;5.152;2022-07-22T02:22:47;8.95;;;2.00;;
51288;SDS011;37372;52.294;5.152;2022-07-22T02:25:13;6.78;;;1.85;;
51288;SDS011;37372;52.294;5.152;2022-07-22T02:27:39;3.95;;;1.25;;
51288;SDS011;37372;52.294;5.152;2022-07-22T02:30:06;2.88;;;1.13;;
51288;SDS011;37372;52.294;5.152;2022-07-22T02:32:32;6.68;;;1.40;;
51288;SDS011;37372;52.294;5.152;2022-07-22T02:34:57;8.18;;;1.33;;
51288;SDS011;37372;52.294;5.152;2022-07-22T02:37:23;8.63;;;1.25;;
51288;SDS011;37372;52.294;5.152;2022-07-22T02:39:48;3.80;;;1.00;;
51288;SDS011;37372;52.294;5.152;2022-07-22T02:42:13;4.38;;;1.00;;
51288;SDS011;37372;52.294;5.152;2022-07-22T02:44:39;6.50;;;1.20;;
51288;SDS011;37372;52.294;5.152;2022-07-22T02:47:05;3.40;;;1.33;;
51288;SDS011;37372;52.294;5.152;2022-07-22T02:49:30;2.92;;;0.90;;
51288;SDS011;37372;52.294;5.152;2022-07-22T02:51:56;4.30;;;0.95;;
51288;SDS011;37372;52.294;5.152;2022-07-22T02:54:21;5.93;;;1.33;;
51288;SDS011;37372;52.294;5.152;2022-07-22T02:56:46;6.68;;;1.13;;
51288;SDS011;37372;52.294;5.152;2022-07-22T02:59:12;3.47;;;0.85;;
51288;SDS011;37372;52.294;5.152;2022-07-22T03:01:37;3.67;;;1.10;;
51288;SDS011;37372;52.294;5.152;2022-07-22T03:04:02;3.08;;;0.90;;
51288;SDS011;37372;52.294;5.152;2022-07-22T03:06:28;2.28;;;0.90;;
51288;SDS011;37372;52.294;5.152;2022-07-22T03:08:53;3.95;;;0.90;;
51288;SDS011;37372;52.294;5.152;2022-07-22T03:11:18;4.53;;;1.02;;
51288;SDS011;37372;52.294;5.152;2022-07-22T03:13:44;4.15;;;1.00;;
51288;SDS011;37372;52.294;5.152;2022-07-22T03:16:09;4.18;;;0.90;;
51288;SDS011;37372;52.294;5.152;2022-07-22T03:18:34;4.22;;;1.17;;
51288;SDS011;37372;52.294;5.152;2022-07-22T03:21:00;3.97;;;0.80;;
51288;SDS011;37372;52.294;5.152;2022-07-22T03:23:25;2.30;;;0.85;;
51288;SDS011;37372;52.294;5.152;2022-07-22T03:25:50;4.15;;;0.93;;
51288;SDS011;37372;52.294;5.152;2022-07-22T03:28:16;3.78;;;0.80;;
51288;SDS011;37372;52.294;5.152;2022-07-22T03:30:41;4.50;;;0.90;;
51288;SDS011;37372;52.294;5.152;2022-07-22T03:33:06;4.47;;;0.98;;
51288;SDS011;37372;52.294;5.152;2022-07-22T03:35:32;3.85;;;0.80;;
51288;SDS011;37372;52.294;5.152;2022-07-22T03:37:57;2.17;;;0.70;;
51288;SDS011;37372;52.294;5.152;2022-07-22T03:40:22;2.45;;;0.85;;
51288;SDS011;37372;52.294;5.152;2022-07-22T03:42:48;8.25;;;0.80;;
51288;SDS011;37372;52.294;5.152;2022-07-22T03:45:13;2.78;;;0.80;;
51288;SDS011;37372;52.294;5.152;2022-07-22T03:47:39;1.90;;;0.80;;
51288;SDS011;37372;52.294;5.152;2022-07-22T03:50:05;3.03;;;0.63;;
51288;SDS011;37372;52.294;5.152;2022-07-22T03:52:31;3.35;;;1.00;;
51288;SDS011;37372;52.294;5.152;2022-07-22T03:54:56;7.35;;;1.20;;
51288;SDS011;37372;52.294;5.152;2022-07-22T03:57:21;8.18;;;1.10;;
51288;SDS011;37372;52.294;5.152;2022-07-22T03:59:47;3.67;;;1.10;;
51288;SDS011;37372;52.294;5.152;2022-07-22T04:02:12;2.97;;;1.00;;
51288;SDS011;37372;52.294;5.152;2022-07-22T04:04:38;5.70;;;1.05;;
51288;SDS011;37372;52.294;5.152;2022-07-22T04:07:03;6.18;;;2.20;;
51288;SDS011;37372;52.294;5.152;2022-07-22T04:09:29;3.15;;;1.35;;
51288;SDS011;37372;52.294;5.152;2022-07-22T04:11:55;4.05;;;1.00;;
51288;SDS011;37372;52.294;5.152;2022-07-22T04:14:20;2.65;;;0.88;;
51288;SDS011;37372;52.294;5.152;2022-07-22T04:16:46;2.55;;;1.52;;
51288;SDS011;37372;52.294;5.152;2022-07-22T04:19:11;2.85;;;1.38;;
51288;SDS011;37372;52.294;5.152;2022-07-22T04:21:37;4.47;;;0.82;;
51288;SDS011;37372;52.294;5.152;2022-07-22T04:24:03;4.38;;;1.30;;
51288;SDS011;37372;52.294;5.152;2022-07-22T04:26:28;4.85;;;1.05;;
51288;SDS011;37372;52.294;5.152;2022-07-22T04:28:54;4.78;;;1.10;;
51288;SDS011;37372;52.294;5.152;2022-07-22T04:31:19;3.50;;;1.02;;
51288;SDS011;37372;52.294;5.152;2022-07-22T04:33:45;5.28;;;1.20;;
51288;SDS011;37372;52.294;5.152;2022-07-22T04:36:10;6.78;;;1.50;;
51288;SDS011;37372;52.294;5.152;2022-07-22T04:38:35;4.57;;;1.83;;
51288;SDS011;37372;52.294;5.152;2022-07-22T04:41:01;6.00;;;1.15;;
51288;SDS011;37372;52.294;5.152;2022-07-22T04:43:26;2.90;;;1.00;;
51288;SDS011;37372;52.294;5.152;2022-07-22T04:45:52;8.45;;;1.38;;
51288;SDS011;37372;52.294;5.152;2022-07-22T04:48:17;4.03;;;1.25;;
51288;SDS011;37372;52.294;5.152;2022-07-22T04:50:43;3.83;;;0.93;;
51288;SDS011;37372;52.294;5.152;2022-07-22T04:53:09;5.10;;;1.23;;
51288;SDS011;37372;52.294;5.152;2022-07-22T04:55:34;6.97;;;1.10;;
51288;SDS011;37372;52.294;5.152;2022-07-22T04:58:00;7.75;;;0.80;;
51288;SDS011;37372;52.294;5.152;2022-07-22T05:00:25;8.40;;;1.15;;
51288;SDS011;37372;52.294;5.152;2022-07-22T05:02:51;5.20;;;1.60;;
51288;SDS011;37372;52.294;5.152;2022-07-22T05:05:16;5.45;;;1.33;;
51288;SDS011;37372;52.294;5.152;2022-07-22T05:07:42;4.47;;;1.15;;
51288;SDS011;37372;52.294;5.152;2022-07-22T05:10:07;5.80;;;1.00;;
51288;SDS011;37372;52.294;5.152;2022-07-22T05:12:33;3.92;;;0.90;;
51288;SDS011;37372;52.294;5.152;2022-07-22T05:14:58;5.78;;;1.30;;
51288;SDS011;37372;52.294;5.152;2022-07-22T05:17:24;4.97;;;1.15;;
51288;SDS011;37372;52.294;5.152;2022-07-22T05:19:49;4.88;;;1.30;;
51288;SDS011;37372;52.294;5.152;2022-07-22T05:22:14;6.55;;;1.17;;
51288;SDS011;37372;52.294;5.152;2022-07-22T05:24:40;6.25;;;1.50;;
51288;SDS011;37372;52.294;5.152;2022-07-22T05:27:05;6.95;;;1.20;;
51288;SDS011;37372;52.294;5.152;2022-07-22T05:29:30;7.18;;;1.85;;
51288;SDS011;37372;52.294;5.152;2022-07-22T05:31:56;6.35;;;1.05;;
51288;SDS011;37372;52.294;5.152;2022-07-22T05:34:22;12.18;;;2.08;;
51288;SDS011;37372;52.294;5.152;2022-07-22T05:36:47;3.78;;;1.30;;
51288;SDS011;37372;52.294;5.152;2022-07-22T05:39:12;4.55;;;0.90;;
51288;SDS011;37372;52.294;5.152;2022-07-22T05:41:38;3.47;;;1.10;;
51288;SDS011;37372;52.294;5.152;2022-07-22T05:44:03;5.22;;;1.10;;
51288;SDS011;37372;52.294;5.152;2022-07-22T05:46:29;2.42;;;1.00;;
51288;SDS011;37372;52.294;5.152;2022-07-22T05:48:55;3.20;;;0.85;;
51288;SDS011;37372;52.294;5.152;2022-07-22T05:51:20;3.95;;;1.10;;
51288;SDS011;37372;52.294;5.152;2022-07-22T05:53:46;3.28;;;0.93;;
51288;SDS011;37372;52.294;5.152;2022-07-22T05:56:11;4.40;;;1.17;;
51288;SDS011;37372;52.294;5.152;2022-07-22T05:58:40;3.40;;;1.15;;
51288;SDS011;37372;52.294;5.152;2022-07-22T06:01:07;3.33;;;1.00;;
51288;SDS011;37372;52.294;5.152;2022-07-22T06:03:33;4.32;;;0.95;;
51288;SDS011;37372;52.294;5.152;2022-07-22T06:05:59;3.17;;;0.93;;
51288;SDS011;37372;52.294;5.152;2022-07-22T06:08:26;11.43;;;1.45;;
51288;SDS011;37372;52.294;5.152;2022-07-22T06:10:52;3.42;;;1.25;;
51288;SDS011;37372;52.294;5.152;2022-07-22T06:13:17;2.65;;;0.90;;
51288;SDS011;37372;52.294;5.152;2022-07-22T06:15:43;3.42;;;0.98;;
51288;SDS011;37372;52.294;5.152;2022-07-22T06:18:08;6.32;;;1.10;;
51288;SDS011;37372;52.294;5.152;2022-07-22T06:20:33;4.85;;;1.10;;
51288;SDS011;37372;52.294;5.152;2022-07-22T06:22:59;5.50;;;1.05;;
51288;SDS011;37372;52.294;5.152;2022-07-22T06:25:25;5.63;;;1.15;;
51288;SDS011;37372;52.294;5.152;2022-07-22T06:27:50;2.17;;;0.80;;
51288;SDS011;37372;52.294;5.152;2022-07-22T06:30:15;4.13;;;1.42;;
51288;SDS011;37372;52.294;5.152;2022-07-22T06:32:41;6.65;;;1.45;;
51288;SDS011;37372;52.294;5.152;2022-07-22T06:35:06;4.28;;;1.30;;
51288;SDS011;37372;52.294;5.152;2022-07-22T06:37:32;4.47;;;1.15;;
51288;SDS011;37372;52.294;5.152;2022-07-22T06:39:57;3.58;;;1.10;;
51288;SDS011;37372;52.294;5.152;2022-07-22T06:42:23;5.15;;;1.00;;
51288;SDS011;37372;52.294;5.152;2022-07-22T06:44:48;6.70;;;1.40;;
51288;SDS011;37372;52.294;5.152;2022-07-22T06:47:14;5.28;;;1.42;;
51288;SDS011;37372;52.294;5.152;2022-07-22T06:49:39;2.33;;;0.80;;
51288;SDS011;37372;52.294;5.152;2022-07-22T06:52:05;4.22;;;1.63;;
51288;SDS011;37372;52.294;5.152;2022-07-22T06:54:30;8.25;;;2.25;;
51288;SDS011;37372;52.294;5.152;2022-07-22T06:56:55;5.10;;;1.08;;
51288;SDS011;37372;52.294;5.152;2022-07-22T06:59:22;2.97;;;1.00;;
51288;SDS011;37372;52.294;5.152;2022-07-22T07:01:48;5.47;;;1.10;;
51288;SDS011;37372;52.294;5.152;2022-07-22T07:04:13;4.90;;;1.67;;
51288;SDS011;37372;52.294;5.152;2022-07-22T07:06:39;4.70;;;1.00;;
51288;SDS011;37372;52.294;5.152;2022-07-22T07:09:04;3.85;;;1.42;;
51288;SDS011;37372;52.294;5.152;2022-07-22T07:11:29;3.55;;;1.40;;
51288;SDS011;37372;52.294;5.152;2022-07-22T07:13:55;2.85;;;1.05;;
51288;SDS011;37372;52.294;5.152;2022-07-22T07:16:20;6.50;;;1.73;;
51288;SDS011;37372;52.294;5.152;2022-07-22T07:18:46;3.05;;;1.23;;
51288;SDS011;37372;52.294;5.152;2022-07-22T07:21:11;3.67;;;1.05;;
51288;SDS011;37372;52.294;5.152;2022-07-22T07:23:37;2.92;;;1.10;;
51288;SDS011;37372;52.294;5.152;2022-07-22T07:26:02;3.17;;;1.10;;
51288;SDS011;37372;52.294;5.152;2022-07-22T07:28:27;4.28;;;0.95;;
51288;SDS011;37372;52.294;5.152;2022-07-22T07:30:53;4.15;;;0.90;;
51288;SDS011;37372;52.294;5.152;2022-07-22T07:33:19;6.82;;;0.98;;
51288;SDS011;37372;52.294;5.152;2022-07-22T07:35:44;4.13;;;0.90;;
51288;SDS011;37372;52.294;5.152;2022-07-22T07:38:10;3.42;;;0.80;;
51288;SDS011;37372;52.294;5.152;2022-07-22T07:40:35;2.72;;;0.95;;
51288;SDS011;37372;52.294;5.152;2022-07-22T07:43:01;4.18;;;0.98;;
51288;SDS011;37372;52.294;5.152;2022-07-22T07:45:26;4.93;;;1.10;;
51288;SDS011;37372;52.294;5.152;2022-07-22T07:47:52;2.70;;;0.82;;
51288;SDS011;37372;52.294;5.152;2022-07-22T07:50:18;3.78;;;0.90;;
51288;SDS011;37372;52.294;5.152;2022-07-22T07:52:44;3.05;;;1.08;;
51288;SDS011;37372;52.294;5.152;2022-07-22T07:55:12;3.63;;;1.38;;
51288;SDS011;37372;52.294;5.152;2022-07-22T07:57:38;4.72;;;1.20;;
51288;SDS011;37372;52.294;5.152;2022-07-22T08:00:05;5.25;;;1.10;;
51288;SDS011;37372;52.294;5.152;2022-07-22T08:02:32;3.55;;;1.00;;
51288;SDS011;37372;52.294;5.152;2022-07-22T08:04:58;6.85;;;2.10;;
51288;SDS011;37372;52.294;5.152;2022-07-22T08:07:24;3.63;;;1.08;;
51288;SDS011;37372;52.294;5.152;2022-07-22T08:09:49;6.78;;;1.95;;
51288;SDS011;37372;52.294;5.152;2022-07-22T08:12:14;4.03;;;1.60;;
51288;SDS011;37372;52.294;5.152;2022-07-22T08:14:40;3.03;;;1.08;;
51288;SDS011;37372;52.294;5.152;2022-07-22T08:17:05;5.70;;;1.02;;
51288;SDS011;37372;52.294;5.152;2022-07-22T08:19:30;4.95;;;0.80;;
51288;SDS011;37372;52.294;5.152;2022-07-22T08:21:56;3.75;;;1.02;;
51288;SDS011;37372;52.294;5.152;2022-07-22T08:24:21;2.22;;;0.75;;
51288;SDS011;37372;52.294;5.152;2022-07-22T08:26:47;5.82;;;0.90;;
51288;SDS011;37372;52.294;5.152;2022-07-22T08:29:12;3.38;;;1.00;;
51288;SDS011;37372;52.294;5.152;2022-07-22T08:31:38;3.83;;;0.88;;
51288;SDS011;37372;52.294;5.152;2022-07-22T08:34:03;2.15;;;1.00;;
51288;SDS011;37372;52.294;5.152;2022-07-22T08:36:29;2.88;;;1.35;;
51288;SDS011;37372;52.294;5.152;2022-07-22T08:38:55;4.93;;;0.90;;
51288;SDS011;37372;52.294;5.152;2022-07-22T08:41:21;1.73;;;0.80;;
51288;SDS011;37372;52.294;5.152;2022-07-22T08:43:47;5.03;;;0.93;;
51288;SDS011;37372;52.294;5.152;2022-07-22T08:46:13;4.57;;;1.17;;
51288;SDS011;37372;52.294;5.152;2022-07-22T08:48:39;2.25;;;0.70;;
51288;SDS011;37372;52.294;5.152;2022-07-22T08:51:05;3.88;;;1.60;;
51288;SDS011;37372;52.294;5.152;2022-07-22T08:53:31;3.45;;;1.33;;
51288;SDS011;37372;52.294;5.152;2022-07-22T08:55:56;2.72;;;1.30;;
51288;SDS011;37372;52.294;5.152;2022-07-22T08:58:23;3.45;;;1.25;;
51288;SDS011;37372;52.294;5.152;2022-07-22T09:03:34;3.77;;;1.00;;
51288;SDS011;37372;52.294;5.152;2022-07-22T09:06:28;4.70;;;1.35;;
51288;SDS011;37372;52.294;5.152;2022-07-22T09:09:05;4.00;;;1.10;;
51288;SDS011;37372;52.294;5.152;2022-07-22T09:11:31;6.63;;;2.30;;
51288;SDS011;37372;52.294;5.152;2022-07-22T09:14:00;4.63;;;1.40;;
51288;SDS011;37372;52.294;5.152;2022-07-22T09:16:39;3.85;;;1.50;;
51288;SDS011;37372;52.294;5.152;2022-07-22T09:19:07;3.72;;;1.85;;
51288;SDS011;37372;52.294;5.152;2022-07-22T09:21:37;3.17;;;1.58;;
51288;SDS011;37372;52.294;5.152;2022-07-22T09:24:04;3.67;;;1.58;;
51288;SDS011;37372;52.294;5.152;2022-07-22T09:26:32;3.28;;;1.92;;
51288;SDS011;37372;52.294;5.152;2022-07-22T09:28:59;3.50;;;2.10;;
51288;SDS011;37372;52.294;5.152;2022-07-22T09:31:25;5.95;;;2.20;;
51288;SDS011;37372;52.294;5.152;2022-07-22T09:33:56;9.93;;;2.75;;
51288;SDS011;37372;52.294;5.152;2022-07-22T09:36:22;6.40;;;2.28;;
51288;SDS011;37372;52.294;5.152;2022-07-22T09:38:47;2.42;;;1.50;;
51288;SDS011;37372;52.294;5.152;2022-07-22T09:41:13;4.30;;;1.30;;
51288;SDS011;37372;52.294;5.152;2022-07-22T09:43:39;3.72;;;1.08;;
51288;SDS011;37372;52.294;5.152;2022-07-22T09:46:04;2.85;;;1.40;;
51288;SDS011;37372;52.294;5.152;2022-07-22T09:48:30;4.35;;;1.38;;
51288;SDS011;37372;52.294;5.152;2022-07-22T09:50:56;5.45;;;1.20;;
51288;SDS011;37372;52.294;5.152;2022-07-22T09:53:23;2.65;;;1.00;;
51288;SDS011;37372;52.294;5.152;2022-07-22T09:55:52;3.28;;;1.35;;
51288;SDS011;37372;52.294;5.152;2022-07-22T09:58:18;3.13;;;1.42;;
51288;SDS011;37372;52.294;5.152;2022-07-22T10:00:44;1.88;;;1.05;;
51288;SDS011;37372;52.294;5.152;2022-07-22T10:03:17;2.75;;;1.15;;
51288;SDS011;37372;52.294;5.152;2022-07-22T10:05:46;2.53;;;1.20;;
51288;SDS011;37372;52.294;5.152;2022-07-22T10:08:12;3.70;;;1.15;;
51288;SDS011;37372;52.294;5.152;2022-07-22T10:10:38;4.03;;;1.10;;
51288;SDS011;37372;52.294;5.152;2022-07-22T10:13:04;2.63;;;1.30;;
51288;SDS011;37372;52.294;5.152;2022-07-22T10:15:32;3.92;;;1.00;;
51288;SDS011;37372;52.294;5.152;2022-07-22T10:17:59;2.80;;;1.00;;
51288;SDS011;37372;52.294;5.152;2022-07-22T10:20:31;3.75;;;1.35;;
51288;SDS011;37372;52.294;5.152;2022-07-22T10:25:24;2.90;;;1.23;;
51288;SDS011;37372;52.294;5.152;2022-07-22T10:30:24;2.95;;;1.33;;
51288;SDS011;37372;52.294;5.152;2022-07-22T10:33:00;3.95;;;1.27;;
51288;SDS011;37372;52.294;5.152;2022-07-22T10:38:08;2.88;;;1.30;;
51288;SDS011;37372;52.294;5.152;2022-07-22T10:43:28;5.57;;;1.65;;
51288;SDS011;37372;52.294;5.152;2022-07-22T10:46:01;5.20;;;1.85;;
51288;SDS011;37372;52.294;5.152;2022-07-22T10:51:12;3.38;;;1.15;;
51288;SDS011;37372;52.294;5.152;2022-07-22T10:56:18;2.70;;;1.10;;
51288;SDS011;37372;52.294;5.152;2022-07-22T10:59:13;5.13;;;1.85;;
51288;SDS011;37372;52.294;5.152;2022-07-22T11:01:45;2.47;;;1.15;;
51288;SDS011;37372;52.294;5.152;2022-07-22T11:04:17;6.28;;;1.30;;
51288;SDS011;37372;52.294;5.152;2022-07-22T11:06:45;2.38;;;1.00;;
51288;SDS011;37372;52.294;5.152;2022-07-22T11:09:12;4.40;;;1.02;;
51288;SDS011;37372;52.294;5.152;2022-07-22T11:16:45;4.32;;;1.25;;
51288;SDS011;37372;52.294;5.152;2022-07-22T11:19:11;3.65;;;1.55;;
51288;SDS011;37372;52.294;5.152;2022-07-22T11:21:37;5.43;;;1.15;;
51288;SDS011;37372;52.294;5.152;2022-07-22T11:24:04;3.67;;;0.90;;
51288;SDS011;37372;52.294;5.152;2022-07-22T11:29:10;2.55;;;0.80;;
51288;SDS011;37372;52.294;5.152;2022-07-22T11:31:40;3.70;;;0.80;;
51288;SDS011;37372;52.294;5.152;2022-07-22T11:36:36;1.95;;;0.73;;
51288;SDS011;37372;52.294;5.152;2022-07-22T11:39:03;3.90;;;1.10;;
51288;SDS011;37372;52.294;5.152;2022-07-22T11:41:30;1.92;;;0.60;;
51288;SDS011;37372;52.294;5.152;2022-07-22T11:43:56;4.30;;;0.85;;
51288;SDS011;37372;52.294;5.152;2022-07-22T11:46:22;1.33;;;0.50;;
51288;SDS011;37372;52.294;5.152;2022-07-22T11:48:50;5.68;;;1.00;;
51288;SDS011;37372;52.294;5.152;2022-07-22T11:51:17;3.28;;;0.70;;
51288;SDS011;37372;52.294;5.152;2022-07-22T11:53:42;3.90;;;0.70;;
51288;SDS011;37372;52.294;5.152;2022-07-22T11:56:08;1.83;;;0.70;;
51288;SDS011;37372;52.294;5.152;2022-07-22T11:58:42;3.30;;;0.80;;
51288;SDS011;37372;52.294;5.152;2022-07-22T12:01:10;1.75;;;0.82;;
51288;SDS011;37372;52.294;5.152;2022-07-22T12:03:38;4.47;;;0.90;;
51288;SDS011;37372;52.294;5.152;2022-07-22T12:06:07;3.78;;;1.15;;
51288;SDS011;37372;52.294;5.152;2022-07-22T12:08:34;4.32;;;1.00;;
51288;SDS011;37372;52.294;5.152;2022-07-22T12:11:04;1.77;;;0.70;;
51288;SDS011;37372;52.294;5.152;2022-07-22T12:13:30;2.72;;;1.00;;
51288;SDS011;37372;52.294;5.152;2022-07-22T12:15:56;5.32;;;1.20;;
51288;SDS011;37372;52.294;5.152;2022-07-22T12:18:24;3.75;;;1.13;;
51288;SDS011;37372;52.294;5.152;2022-07-22T12:20:51;2.67;;;1.05;;
51288;SDS011;37372;52.294;5.152;2022-07-22T12:23:17;3.35;;;1.00;;
51288;SDS011;37372;52.294;5.152;2022-07-22T12:25:49;2.90;;;1.00;;
51288;SDS011;37372;52.294;5.152;2022-07-22T12:28:22;3.65;;;0.88;;
51288;SDS011;37372;52.294;5.152;2022-07-22T12:30:50;4.45;;;1.00;;
51288;SDS011;37372;52.294;5.152;2022-07-22T12:33:18;3.72;;;1.00;;
51288;SDS011;37372;52.294;5.152;2022-07-22T12:35:44;4.13;;;1.48;;
51288;SDS011;37372;52.294;5.152;2022-07-22T12:38:24;2.20;;;1.10;;
51288;SDS011;37372;52.294;5.152;2022-07-22T12:40:49;2.53;;;0.80;;
51288;SDS011;37372;52.294;5.152;2022-07-22T12:43:14;3.03;;;0.80;;
51288;SDS011;37372;52.294;5.152;2022-07-22T12:45:40;2.75;;;0.75;;
51288;SDS011;37372;52.294;5.152;2022-07-22T12:48:07;2.75;;;0.90;;
51288;SDS011;37372;52.294;5.152;2022-07-22T12:50:38;3.90;;;0.98;;
51288;SDS011;37372;52.294;5.152;2022-07-22T12:55:38;2.53;;;0.70;;
51288;SDS011;37372;52.294;5.152;2022-07-22T12:58:05;3.13;;;1.00;;
51288;SDS011;37372;52.294;5.152;2022-07-22T13:00:33;3.30;;;1.00;;
51288;SDS011;37372;52.294;5.152;2022-07-22T13:03:00;4.70;;;1.27;;
51288;SDS011;37372;52.294;5.152;2022-07-22T13:05:26;1.88;;;0.70;;
51288;SDS011;37372;52.294;5.152;2022-07-22T13:07:52;3.05;;;0.80;;
51288;SDS011;37372;52.294;5.152;2022-07-22T13:10:18;4.32;;;1.02;;
51288;SDS011;37372;52.294;5.152;2022-07-22T13:12:45;3.85;;;0.80;;
51288;SDS011;37372;52.294;5.152;2022-07-22T13:15:11;2.88;;;0.80;;
51288;SDS011;37372;52.294;5.152;2022-07-22T13:17:36;4.20;;;0.95;;
51288;SDS011;37372;52.294;5.152;2022-07-22T13:20:03;5.47;;;1.00;;
51288;SDS011;37372;52.294;5.152;2022-07-22T13:22:30;1.52;;;0.65;;
51288;SDS011;37372;52.294;5.152;2022-07-22T13:24:55;4.85;;;1.10;;
51288;SDS011;37372;52.294;5.152;2022-07-22T13:27:20;2.20;;;0.88;;
51288;SDS011;37372;52.294;5.152;2022-07-22T13:29:46;2.50;;;1.02;;
51288;SDS011;37372;52.294;5.152;2022-07-22T13:32:11;2.95;;;0.77;;
51288;SDS011;37372;52.294;5.152;2022-07-22T13:34:36;1.75;;;0.90;;
51288;SDS011;37372;52.294;5.152;2022-07-22T13:37:02;1.90;;;0.80;;
51288;SDS011;37372;52.294;5.152;2022-07-22T13:39:27;3.45;;;1.02;;
51288;SDS011;37372;52.294;5.152;2022-07-22T13:41:53;3.67;;;0.95;;
51288;SDS011;37372;52.294;5.152;2022-07-22T13:44:18;1.67;;;0.68;;
51288;SDS011;37372;52.294;5.152;2022-07-22T13:46:44;4.20;;;0.70;;
51288;SDS011;37372;52.294;5.152;2022-07-22T13:49:10;4.20;;;0.68;;
51288;SDS011;37372;52.294;5.152;2022-07-22T13:51:36;2.53;;;0.90;;
51288;SDS011;37372;52.294;5.152;2022-07-22T13:54:01;4.38;;;0.90;;
51288;SDS011;37372;52.294;5.152;2022-07-22T13:56:26;3.50;;;1.08;;
51288;SDS011;37372;52.294;5.152;2022-07-22T13:58:52;3.58;;;1.23;;
51288;SDS011;37372;52.294;5.152;2022-07-22T14:01:17;3.05;;;1.45;;
51288;SDS011;37372;52.294;5.152;2022-07-22T14:03:43;3.92;;;1.15;;
51288;SDS011;37372;52.294;5.152;2022-07-22T14:06:08;2.70;;;1.00;;
51288;SDS011;37372;52.294;5.152;2022-07-22T14:08:34;2.65;;;1.00;;
51288;SDS011;37372;52.294;5.152;2022-07-22T14:11:00;3.88;;;0.60;;
51288;SDS011;37372;52.294;5.152;2022-07-22T14:13:26;4.55;;;1.25;;
51288;SDS011;37372;52.294;5.152;2022-07-22T14:15:52;3.95;;;0.98;;
51288;SDS011;37372;52.294;5.152;2022-07-22T14:18:17;2.40;;;0.90;;
51288;SDS011;37372;52.294;5.152;2022-07-22T14:20:42;2.38;;;0.70;;
51288;SDS011;37372;52.294;5.152;2022-07-22T14:23:08;2.03;;;0.98;;
51288;SDS011;37372;52.294;5.152;2022-07-22T14:25:35;1.30;;;0.75;;
51288;SDS011;37372;52.294;5.152;2022-07-22T14:28:01;1.67;;;1.00;;
51288;SDS011;37372;52.294;5.152;2022-07-22T14:30:27;4.35;;;1.17;;
51288;SDS011;37372;52.294;5.152;2022-07-22T14:32:54;3.38;;;1.38;;
51288;SDS011;37372;52.294;5.152;2022-07-22T14:35:22;4.45;;;1.38;;
51288;SDS011;37372;52.294;5.152;2022-07-22T14:37:48;3.97;;;1.20;;
51288;SDS011;37372;52.294;5.152;2022-07-22T14:40:13;1.77;;;0.77;;
51288;SDS011;37372;52.294;5.152;2022-07-22T14:42:39;1.60;;;0.75;;
51288;SDS011;37372;52.294;5.152;2022-07-22T14:45:05;6.72;;;1.40;;
51288;SDS011;37372;52.294;5.152;2022-07-22T14:47:34;5.80;;;1.20;;
51288;SDS011;37372;52.294;5.152;2022-07-22T14:50:00;3.50;;;1.10;;
51288;SDS011;37372;52.294;5.152;2022-07-22T14:52:25;3.65;;;1.17;;
51288;SDS011;37372;52.294;5.152;2022-07-22T14:54:50;3.08;;;0.73;;
51288;SDS011;37372;52.294;5.152;2022-07-22T14:57:16;1.45;;;0.80;;
51288;SDS011;37372;52.294;5.152;2022-07-22T14:59:41;2.53;;;0.70;;
51288;SDS011;37372;52.294;5.152;2022-07-22T15:02:06;5.60;;;1.02;;
51288;SDS011;37372;52.294;5.152;2022-07-22T15:04:32;3.33;;;0.82;;
51288;SDS011;37372;52.294;5.152;2022-07-22T15:06:57;1.90;;;0.77;;
51288;SDS011;37372;52.294;5.152;2022-07-22T15:09:22;6.07;;;1.17;;
51288;SDS011;37372;52.294;5.152;2022-07-22T15:11:48;1.73;;;0.80;;
51288;SDS011;37372;52.294;5.152;2022-07-22T15:14:14;4.00;;;1.08;;